createdAt,value
2019-05-22T00:05:15.858Z,95.20
2019-05-22T00:11:20.526Z,95.40
2019-05-22T00:17:26.092Z,95.50
2019-05-22T00:23:30.146Z,95.20
2019-05-22T00:29:33.334Z,95.00
2019-05-22T00:35:37.138Z,94.10
2019-05-22T00:41:39.448Z,94.10
2019-05-22T00:47:41.589Z,93.90
2019-05-22T00:54:00.216Z,94.00
2019-05-22T01:00:04.681Z,93.80
2019-05-22T01:06:10.521Z,94.30
2019-05-22T01:12:18.965Z,94.00
2019-05-22T01:18:26.165Z,94.40
2019-05-22T01:24:28.497Z,94.30
2019-05-22T01:30:34.595Z,94.60
2019-05-22T01:36:39.071Z,94.70
2019-05-22T01:42:41.994Z,94.80
2019-05-22T01:48:44.597Z,94.70
2019-05-22T01:54:46.164Z,94.60
2019-05-22T02:00:51.994Z,94.60
2019-05-22T02:06:54.914Z,94.80
2019-05-22T02:12:59.366Z,94.90
2019-05-22T02:19:02.669Z,94.90
2019-05-22T02:25:05.840Z,94.40
2019-05-22T02:31:08.622Z,94.30
2019-05-22T02:37:11.146Z,94.30
2019-05-22T02:43:14.723Z,94.40
2019-05-22T02:49:16.877Z,94.30
2019-05-22T02:55:18.545Z,94.20
2019-05-22T03:01:20.138Z,94.30
2019-05-22T03:07:23.250Z,94.20
2019-05-22T03:13:54.309Z,93.70
2019-05-22T03:19:57.279Z,93.60
2019-05-22T03:26:00.038Z,94.00
2019-05-22T03:32:02.863Z,94.30
2019-05-22T03:38:05.694Z,94.40
2019-05-22T03:44:07.413Z,94.50
2019-05-22T03:50:11.298Z,94.70
2019-05-22T03:56:14.559Z,94.90
2019-05-22T04:02:16.760Z,95.20
2019-05-22T04:08:20.706Z,95.10
2019-05-22T04:14:26.054Z,95.20
2019-05-22T04:20:33.161Z,95.30
2019-05-22T04:26:37.566Z,95.20
2019-05-22T04:32:43.547Z,94.90
2019-05-22T04:38:45.025Z,95.10
2019-05-22T04:45:08.597Z,95.00
2019-05-22T04:51:22.007Z,94.70
2019-05-22T04:57:24.517Z,95.00
2019-05-22T05:03:28.735Z,95.20
2019-05-22T05:09:31.044Z,95.50
2019-05-22T05:15:32.727Z,95.90
2019-05-22T05:21:36.452Z,95.80
2019-05-22T05:27:38.468Z,95.40
2019-05-22T05:33:49.898Z,95.50
2019-05-22T05:40:07.342Z,95.30
2019-05-22T05:46:11.842Z,95.20
2019-05-22T05:52:15.400Z,95.10
2019-05-22T05:58:22.983Z,95.20
2019-05-22T06:04:34.855Z,95.40
2019-05-22T06:10:35.662Z,95.00
2019-05-22T06:16:56.686Z,95.40
2019-05-22T06:23:21.836Z,95.30
2019-05-22T06:29:28.014Z,95.20
2019-05-22T06:35:33.299Z,95.40
2019-05-22T06:41:37.257Z,95.10
2019-05-22T06:47:38.863Z,95.30
2019-05-22T06:53:40.521Z,94.90
2019-05-22T06:59:44.207Z,95.00
2019-05-22T07:05:46.002Z,95.70
2019-05-22T07:11:48.255Z,96.10
2019-05-22T07:17:51.985Z,96.40
2019-05-22T07:23:53.722Z,96.50
2019-05-22T07:29:55.695Z,96.50
2019-05-22T07:36:09.566Z,96.50
2019-05-22T07:42:02.452Z,96.10
2019-05-22T07:48:05.143Z,96.10
2019-05-22T07:54:06.757Z,95.60
2019-05-22T08:00:08.838Z,95.40
2019-05-22T08:06:11.220Z,95.20
2019-05-22T08:12:13.549Z,94.80
2019-05-22T08:18:16.142Z,95.00
2019-05-22T08:24:17.889Z,94.90
2019-05-22T08:30:19.568Z,94.10
2019-05-22T08:36:21.244Z,94.30
2019-05-22T08:42:23.400Z,94.80
2019-05-22T08:48:25.445Z,95.20
2019-05-22T08:54:30.062Z,95.60
2019-05-22T09:00:32.133Z,95.10
2019-05-22T09:06:34.121Z,94.70
2019-05-22T09:12:35.987Z,93.90
2019-05-22T09:18:39.054Z,94.50
2019-05-22T09:24:40.875Z,95.20
2019-05-22T09:30:42.686Z,94.50
2019-05-22T09:36:44.282Z,94.20
2019-05-22T09:42:46.447Z,94.30
2019-05-22T09:48:48.422Z,93.30
2019-05-22T09:54:50.035Z,93.30
2019-05-22T10:00:57.554Z,93.00
2019-05-22T10:07:11.371Z,92.10
2019-05-22T17:11:12.511Z,55.10
2019-05-22T17:17:18.651Z,55.10
2019-05-22T17:23:21.865Z,54.00
2019-05-22T17:29:24.290Z,49.90
2019-05-22T17:35:26.282Z,48.10
2019-05-22T17:41:30.913Z,47.70
2019-05-22T17:47:32.699Z,44.50
2019-05-22T17:53:36.507Z,43.90
2019-05-22T17:59:39.429Z,43.10
2019-05-22T18:05:41.352Z,44.30
2019-05-22T18:11:42.890Z,43.70
2019-05-22T18:17:44.851Z,48.40
2019-05-22T18:23:46.848Z,55.90
2019-05-22T18:29:48.402Z,62.00
2019-05-22T18:35:51.414Z,66.90
2019-05-22T18:41:53.315Z,67.70
2019-05-22T18:47:59.110Z,71.80
2019-05-22T18:54:00.735Z,78.50
2019-05-22T19:00:06.116Z,83.70
2019-05-22T19:06:09.262Z,87.40
2019-05-22T19:12:11.461Z,90.20
2019-05-22T19:18:41.376Z,90.70
2019-05-22T19:31:06.363Z,92.20
2019-05-22T19:37:08.187Z,92.80
2019-05-22T19:43:11.359Z,93.20
2019-05-22T19:49:14.155Z,93.60
2019-05-22T19:55:18.536Z,94.00
2019-05-22T20:01:21.983Z,94.60
2019-05-22T20:07:23.565Z,94.40
2019-05-22T20:13:25.843Z,94.30
2019-05-22T20:19:27.437Z,94.50
2019-05-22T20:25:29.026Z,94.60
2019-05-22T20:31:30.715Z,94.70
2019-05-22T20:37:42.191Z,95.10
2019-05-22T20:43:44.086Z,95.20
2019-05-22T20:49:47.342Z,95.90
2019-05-22T20:55:50.180Z,96.20
2019-05-22T21:01:52.137Z,96.10
2019-05-22T21:07:57.819Z,96.50
2019-05-22T21:14:00.608Z,96.80
2019-05-22T21:20:06.773Z,96.90
2019-05-22T21:26:10.642Z,97.00
2019-05-22T21:32:13.344Z,96.70
2019-05-22T21:38:15.821Z,97.30
2019-05-22T21:44:17.775Z,97.20
2019-05-22T21:50:20.259Z,97.40
2019-05-22T21:56:21.803Z,97.10
2019-05-22T22:02:31.931Z,97.20
2019-05-22T22:08:34.882Z,97.40
2019-05-22T22:14:36.909Z,97.30
2019-05-22T22:20:38.661Z,97.40
2019-05-22T22:26:41.042Z,97.70
2019-05-22T22:32:43.779Z,97.90
2019-05-22T22:38:45.552Z,98.40
2019-05-22T22:44:51.226Z,98.90
2019-05-22T22:50:54.614Z,98.90
2019-05-22T22:56:56.243Z,98.90
2019-05-22T23:02:57.971Z,98.30
2019-05-22T23:09:00.176Z,98.30
2019-05-22T23:15:02.199Z,98.30
2019-05-22T23:21:04.267Z,98.30
2019-05-22T23:27:06.522Z,98.30
2019-05-22T23:33:09.724Z,98.30
2019-05-22T23:39:14.249Z,98.20
2019-05-22T23:45:18.655Z,98.60
2019-05-22T23:51:35.243Z,98.80
2019-05-22T23:57:51.778Z,99.20
